Time;durP1;ratioP1;P1;durP2;ratioP2;P2;SDS_P1;SDS_P2;PMS_P1;PMS_P2;Temp;Humidity;BMP_temperature;BMP_pressure;BME280_temperature;BME280_humidity;BME280_pressure;Samples;Min_cycle;Max_cycle;Signal;HPM_P1;HPM_P2
2021/10/13 00:03:58;;;;;;;1.33;1.03;;;17.80;72.70;;;;;;10384742;22;20233;-67
2021/10/13 00:09:20;;;;;;;1.30;1.00;;;17.80;72.70;;;;;;10407425;28;20546;-67
2021/10/13 00:14:42;;;;;;;2.00;1.07;;;17.90;72.70;;;;;;10424105;28;20224;-67
2021/10/13 00:20:07;;;;;;;1.00;0.80;;;17.90;72.70;;;;;;10425355;28;20189;-67
2021/10/13 00:25:29;;;;;;;1.17;0.80;;;17.90;72.70;;;;;;10439095;28;20212;-67
2021/10/13 00:30:52;;;;;;;1.03;0.83;;;17.90;72.60;;;;;;10425512;28;20205;-66
2021/10/13 00:36:15;;;;;;;0.87;0.73;;;17.90;72.60;;;;;;10415724;28;20222;-67
2021/10/13 00:41:37;;;;;;;1.63;1.10;;;17.80;72.50;;;;;;10414130;28;20198;-67
2021/10/13 00:47:00;;;;;;;1.10;0.80;;;17.90;72.50;;;;;;10443533;28;20193;-68
2021/10/13 00:52:23;;;;;;;1.13;0.90;;;17.90;72.50;;;;;;10413946;28;20225;-67
2021/10/13 00:57:46;;;;;;;0.80;0.80;;;17.90;72.50;;;;;;10415047;28;20224;-67
2021/10/13 01:03:18;;;;;;;0.77;0.63;;;17.80;72.40;;;;;;10412790;28;20226;-67
2021/10/13 01:08:52;;;;;;;1.17;0.63;;;17.80;72.40;;;;;;10382702;28;20193;-67
2021/10/13 01:14:28;;;;;;;0.80;0.70;;;17.80;72.40;;;;;;10439364;28;20681;-67
2021/10/13 01:20:01;;;;;;;0.73;0.53;;;17.80;72.40;;;;;;10413859;28;20692;-67
2021/10/13 01:25:36;;;;;;;2.37;0.80;;;17.80;72.40;;;;;;10428414;28;20692;-67
2021/10/13 01:31:04;;;;;;;1.97;1.00;;;17.80;72.40;;;;;;10430696;28;20585;-67
2021/10/13 01:36:32;;;;;;;0.60;0.60;;;17.80;72.30;;;;;;10423573;28;20577;-67
2021/10/13 01:41:57;;;;;;;0.80;0.60;;;17.80;72.30;;;;;;10405569;28;20222;-65
2021/10/13 01:47:23;;;;;;;0.90;0.53;;;17.80;72.30;;;;;;10412055;28;20194;-67
2021/10/13 01:52:48;;;;;;;0.77;0.60;;;17.80;72.30;;;;;;10450925;28;20225;-67
2021/10/13 01:58:11;;;;;;;1.20;0.80;;;17.80;72.30;;;;;;10451098;28;20680;-67
2021/10/13 02:03:35;;;;;;;0.67;0.67;;;17.80;72.40;;;;;;10424423;28;20229;-67
2021/10/13 02:09:00;;;;;;;1.03;0.70;;;17.80;72.30;;;;;;10450766;28;20189;-67
2021/10/13 02:14:25;;;;;;;1.60;0.80;;;17.80;72.30;;;;;;10452322;28;20217;-67
2021/10/13 02:19:49;;;;;;;0.63;0.60;;;17.80;72.20;;;;;;10429744;28;20217;-67
2021/10/13 02:25:11;;;;;;;0.60;0.57;;;17.80;72.20;;;;;;10415922;28;20217;-67
2021/10/13 02:30:34;;;;;;;0.80;0.70;;;17.80;72.20;;;;;;10453131;28;20204;-68
2021/10/13 02:35:57;;;;;;;1.07;0.50;;;17.70;72.10;;;;;;10422121;28;20221;-67
2021/10/13 02:41:19;;;;;;;0.93;0.53;;;17.80;72.20;;;;;;10412228;28;20198;-67
2021/10/13 02:46:48;;;;;;;0.40;0.40;;;17.80;72.10;;;;;;10426138;28;20663;-67
2021/10/13 02:52:18;;;;;;;0.83;0.67;;;17.80;72.20;;;;;;10449049;28;20700;-67
2021/10/13 02:57:44;;;;;;;0.70;0.70;;;17.80;72.00;;;;;;10415826;28;20815;-67
2021/10/13 03:03:10;;;;;;;1.17;0.57;;;17.80;72.00;;;;;;10411108;28;20248;-67
2021/10/13 03:08:36;;;;;;;0.50;0.50;;;17.80;72.00;;;;;;10450817;28;20808;-67
2021/10/13 03:14:01;;;;;;;0.50;0.50;;;17.80;71.90;;;;;;10448348;28;20292;-67
2021/10/13 03:19:26;;;;;;;0.60;0.40;;;17.80;71.90;;;;;;10439585;28;20213;-67
2021/10/13 03:24:49;;;;;;;0.40;0.40;;;17.80;71.80;;;;;;10412307;28;20724;-67
2021/10/13 03:30:12;;;;;;;0.57;0.50;;;17.80;71.80;;;;;;10410635;28;20191;-67
2021/10/13 03:35:34;;;;;;;0.50;0.40;;;17.80;71.70;;;;;;10418777;28;20596;-67
2021/10/13 03:40:58;;;;;;;0.53;0.50;;;17.80;71.80;;;;;;10430392;28;20198;-67
2021/10/13 03:46:23;;;;;;;1.23;0.70;;;17.80;71.60;;;;;;10417170;28;20202;-67
2021/10/13 03:51:45;;;;;;;0.40;0.40;;;17.80;71.60;;;;;;10416933;28;20218;-67
2021/10/13 03:57:08;;;;;;;0.77;0.60;;;17.90;71.60;;;;;;10415927;28;20701;-67
2021/10/13 04:02:30;;;;;;;0.40;0.40;;;17.90;71.50;;;;;;10417934;28;20229;-67
2021/10/13 04:07:52;;;;;;;0.63;0.30;;;17.90;71.40;;;;;;10417718;28;20198;-64
2021/10/13 04:13:16;;;;;;;0.40;0.30;;;17.90;71.40;;;;;;10416159;28;20221;-67
2021/10/13 04:18:38;;;;;;;1.07;0.50;;;17.90;71.20;;;;;;10426622;28;20224;-67
2021/10/13 04:24:00;;;;;;;0.60;0.43;;;17.90;71.20;;;;;;10398001;28;20230;-67
2021/10/13 04:29:24;;;;;;;1.07;0.30;;;17.90;71.10;;;;;;10416128;28;20186;-67
2021/10/13 04:34:46;;;;;;;0.50;0.40;;;17.90;71.10;;;;;;10444474;28;20598;-67
2021/10/13 04:40:09;;;;;;;0.40;0.33;;;17.90;71.00;;;;;;10436325;28;20719;-67
2021/10/13 04:45:32;;;;;;;0.87;0.50;;;18.00;71.00;;;;;;10413549;28;20584;-67
2021/10/13 04:50:54;;;;;;;0.43;0.37;;;18.00;70.90;;;;;;10428366;28;20208;-66
2021/10/13 04:56:17;;;;;;;0.40;0.40;;;18.00;70.80;;;;;;10453439;28;20584;-67
2021/10/13 05:01:40;;;;;;;0.40;0.40;;;18.00;70.80;;;;;;10430485;28;20201;-66
2021/10/13 05:07:02;;;;;;;0.50;0.40;;;18.00;70.80;;;;;;10435478;28;20673;-66
2021/10/13 05:12:24;;;;;;;0.40;0.30;;;18.00;70.80;;;;;;10401144;28;20225;-67
2021/10/13 05:17:48;;;;;;;0.50;0.40;;;18.00;70.80;;;;;;10433398;28;20228;-67
2021/10/13 05:23:10;;;;;;;0.30;0.20;;;18.00;70.80;;;;;;10431785;28;20705;-67
2021/10/13 05:28:32;;;;;;;1.60;0.50;;;18.00;70.70;;;;;;10413762;28;20869;-68
2021/10/13 05:33:56;;;;;;;0.33;0.20;;;18.00;70.70;;;;;;10412966;28;20640;-66
2021/10/13 05:39:18;;;;;;;0.80;0.30;;;18.10;71.30;;;;;;10388513;28;20209;-67
2021/10/13 05:44:40;;;;;;;0.93;0.37;;;18.10;70.80;;;;;;10434284;28;20220;-67
2021/10/13 05:50:04;;;;;;;1.23;0.40;;;18.10;70.80;;;;;;10435107;28;20194;-67
2021/10/13 05:55:26;;;;;;;0.60;0.33;;;18.10;70.80;;;;;;10424058;28;20209;-67
2021/10/13 06:00:49;;;;;;;0.30;0.30;;;18.10;70.80;;;;;;10393699;28;20201;-68
2021/10/13 06:06:12;;;;;;;1.00;0.30;;;18.10;70.70;;;;;;10443098;22;20235;-68
2021/10/13 06:11:34;;;;;;;0.60;0.43;;;18.10;70.60;;;;;;10449749;28;20577;-69
2021/10/13 06:16:56;;;;;;;0.77;0.50;;;18.10;70.60;;;;;;10460918;28;20221;-68
2021/10/13 06:22:20;;;;;;;0.43;0.30;;;18.10;70.60;;;;;;10440563;28;20197;-68
2021/10/13 06:27:43;;;;;;;0.87;0.40;;;18.10;70.60;;;;;;10421175;28;20205;-68
2021/10/13 06:33:05;;;;;;;0.43;0.30;;;18.10;70.50;;;;;;10423110;28;20218;-69
2021/10/13 06:38:29;;;;;;;0.50;0.40;;;18.10;70.60;;;;;;10407083;28;20221;-69
2021/10/13 06:43:51;;;;;;;0.63;0.40;;;18.10;70.60;;;;;;10415357;28;20244;-68
2021/10/13 06:49:13;;;;;;;0.30;0.30;;;18.10;70.60;;;;;;10443543;28;20588;-68
2021/10/13 06:54:36;;;;;;;0.30;0.30;;;18.10;70.60;;;;;;10427373;28;20216;-68
2021/10/13 06:59:58;;;;;;;0.57;0.33;;;18.10;70.50;;;;;;10419045;28;20703;-69
2021/10/13 07:05:21;;;;;;;0.50;0.40;;;18.10;70.50;;;;;;10413009;28;20643;-69
2021/10/13 07:10:44;;;;;;;0.53;0.40;;;18.10;70.60;;;;;;10440168;28;20201;-69
2021/10/13 07:16:06;;;;;;;0.37;0.37;;;18.10;70.60;;;;;;10434096;28;20221;-68
2021/10/13 07:21:28;;;;;;;1.33;0.60;;;18.10;70.60;;;;;;10417854;28;20194;-67
2021/10/13 07:26:52;;;;;;;0.40;0.40;;;18.10;70.60;;;;;;10442588;28;20218;-68
2021/10/13 07:32:14;;;;;;;0.40;0.20;;;18.20;70.60;;;;;;10439302;28;20233;-69
2021/10/13 07:37:36;;;;;;;0.30;0.30;;;18.20;70.60;;;;;;10426066;28;20225;-68
2021/10/13 07:43:00;;;;;;;1.07;0.50;;;18.20;70.70;;;;;;10436848;28;20236;-68
2021/10/13 07:48:24;;;;;;;1.23;0.50;;;18.20;70.60;;;;;;10445764;28;20205;-68
2021/10/13 07:53:47;;;;;;;1.10;0.60;;;18.20;70.60;;;;;;10416529;28;20314;-68
2021/10/13 07:59:10;;;;;;;0.60;0.50;;;18.20;70.60;;;;;;10442619;28;20299;-68
2021/10/13 08:04:32;;;;;;;1.10;0.60;;;18.20;70.70;;;;;;10425148;28;20226;-67
2021/10/13 08:09:54;;;;;;;0.47;0.47;;;18.20;70.70;;;;;;10415673;28;20193;-67
2021/10/13 08:15:18;;;;;;;0.43;0.43;;;18.20;70.70;;;;;;10422588;28;20708;-67
2021/10/13 08:20:40;;;;;;;1.90;0.60;;;18.20;70.70;;;;;;10414161;28;20224;-68
2021/10/13 08:26:02;;;;;;;0.53;0.53;;;18.20;70.70;;;;;;10424670;28;20217;-67
2021/10/13 08:31:26;;;;;;;1.60;0.80;;;18.20;70.80;;;;;;10415815;28;20577;-68
2021/10/13 08:36:48;;;;;;;0.80;0.80;;;18.20;70.80;;;;;;10413378;28;20233;-68
2021/10/13 08:42:11;;;;;;;1.07;0.73;;;18.30;70.90;;;;;;10425966;28;20203;-69
2021/10/13 08:47:35;;;;;;;0.90;0.77;;;18.20;70.80;;;;;;10436680;28;20194;-70
2021/10/13 08:53:05;;;;;;;0.70;0.63;;;18.20;70.80;;;;;;10417318;28;20224;-67
2021/10/13 08:58:28;;;;;;;1.63;0.77;;;18.20;70.80;;;;;;10421044;28;20292;-69
2021/10/13 09:03:59;;;;;;;1.20;0.80;;;18.20;70.90;;;;;;10416387;28;20281;-70
2021/10/13 09:09:21;;;;;;;0.90;0.70;;;18.20;71.10;;;;;;10413258;28;20192;-68
2021/10/13 09:14:43;;;;;;;0.93;0.80;;;18.20;71.10;;;;;;10424432;28;20218;-69
2021/10/13 09:20:16;;;;;;;1.30;1.17;;;18.30;71.20;;;;;;10422006;28;20604;-69
2021/10/13 09:25:38;;;;;;;1.23;0.70;;;18.30;71.20;;;;;;10412986;28;20228;-69
2021/10/13 09:31:11;;;;;;;0.97;0.83;;;18.30;71.30;;;;;;10418770;28;20202;-68
2021/10/13 09:36:36;;;;;;;0.87;0.80;;;18.30;71.30;;;;;;10434596;28;20221;-69
2021/10/13 09:42:04;;;;;;;1.07;0.70;;;18.30;71.30;;;;;;10432913;28;20201;-69
2021/10/13 09:47:30;;;;;;;0.70;0.70;;;18.30;71.40;;;;;;10427714;28;20194;-69
2021/10/13 09:52:53;;;;;;;1.30;0.83;;;18.30;71.70;;;;;;10410302;28;20210;-68
2021/10/13 09:58:23;;;;;;;1.70;0.60;;;18.30;71.60;;;;;;10426604;28;20217;-69
2021/10/13 10:03:47;;;;;;;2.33;0.60;;;18.30;71.50;;;;;;10438707;28;20281;-69
2021/10/13 10:09:17;;;;;;;0.80;0.60;;;18.30;71.60;;;;;;10421741;28;20288;-70
2021/10/13 10:14:46;;;;;;;0.57;0.50;;;18.30;71.70;;;;;;10422996;28;20300;-69
2021/10/13 10:20:08;;;;;;;0.83;0.50;;;18.30;71.80;;;;;;10437434;28;20217;-69
2021/10/13 10:25:37;;;;;;;0.97;0.60;;;18.30;71.90;;;;;;10436249;28;20213;-70
2021/10/13 10:31:29;;;;;;;0.83;0.63;;;18.30;71.90;;;;;;10418712;28;20608;-69
2021/10/13 10:37:11;;;;;;;0.97;0.60;;;18.30;71.80;;;;;;10415331;28;20232;-70
2021/10/13 10:42:50;;;;;;;1.10;0.60;;;18.30;71.80;;;;;;10436765;28;20213;-66
2021/10/13 10:48:15;;;;;;;1.57;0.60;;;18.30;71.80;;;;;;10422391;28;20209;-66
2021/10/13 10:53:39;;;;;;;1.37;0.70;;;18.40;72.40;;;;;;10410519;28;20222;-66
2021/10/13 10:59:08;;;;;;;1.27;0.80;;;18.40;72.50;;;;;;10424228;28;20589;-66
2021/10/13 11:04:31;;;;;;;0.90;0.53;;;18.50;72.30;;;;;;10426614;28;20228;-69
2021/10/13 11:09:59;;;;;;;0.60;0.50;;;18.50;71.90;;;;;;10422708;28;20659;-70
2021/10/13 11:15:24;;;;;;;1.13;0.90;;;18.50;71.80;;;;;;10409627;28;20355;-68
2021/10/13 11:20:47;;;;;;;1.20;0.73;;;18.40;71.80;;;;;;10421434;28;20221;-70
2021/10/13 11:26:09;;;;;;;1.67;0.80;;;18.40;71.90;;;;;;10454029;28;20619;-70
2021/10/13 11:31:32;;;;;;;0.90;0.70;;;18.40;71.90;;;;;;10408610;28;20202;-68
2021/10/13 11:36:57;;;;;;;0.80;0.60;;;18.40;72.00;;;;;;10414197;28;20225;-68
2021/10/13 11:42:20;;;;;;;0.50;0.50;;;18.40;72.20;;;;;;10440919;28;20294;-69
2021/10/13 11:47:43;;;;;;;1.17;0.70;;;18.30;72.20;;;;;;10447288;28;20202;-66
2021/10/13 11:53:05;;;;;;;1.37;0.70;;;18.30;72.20;;;;;;10429233;28;20217;-65
2021/10/13 11:58:29;;;;;;;4.17;0.93;;;18.40;72.30;;;;;;10426839;28;20228;-65
2021/10/13 12:03:53;;;;;;;1.52;0.90;;;18.40;72.20;;;;;;10449816;22;20822;-67
2021/10/13 12:09:15;;;;;;;2.27;1.00;;;19.10;70.20;;;;;;10361827;28;20790;-63
2021/10/13 12:14:37;;;;;;;2.13;0.90;;;18.80;71.80;;;;;;10367086;28;20215;-71
2021/10/13 12:20:02;;;;;;;2.67;0.87;;;18.70;71.60;;;;;;10369090;28;20229;-68
2021/10/13 12:25:30;;;;;;;2.23;0.83;;;18.60;71.50;;;;;;10375766;28;20222;-69
2021/10/13 12:31:01;;;;;;;2.33;1.50;;;18.60;71.70;;;;;;10358624;28;20201;-69
2021/10/13 12:36:30;;;;;;;1.60;0.97;;;18.60;72.20;;;;;;10341883;28;20246;-68
2021/10/13 12:41:53;;;;;;;3.33;1.43;;;18.60;72.40;;;;;;10362876;28;20230;-69
2021/10/13 12:47:18;;;;;;;2.27;0.90;;;18.50;72.40;;;;;;10368400;28;20218;-68
2021/10/13 12:52:42;;;;;;;2.17;1.00;;;18.50;72.50;;;;;;10352020;28;20199;-70
2021/10/13 12:58:04;;;;;;;2.43;1.00;;;18.50;72.60;;;;;;10366726;28;20656;-69
2021/10/13 13:03:26;;;;;;;3.70;1.10;;;18.50;72.60;;;;;;10345131;28;20238;-69
2021/10/13 13:08:49;;;;;;;2.13;1.10;;;18.50;72.50;;;;;;10361409;28;20555;-69
2021/10/13 13:14:12;;;;;;;1.60;1.00;;;18.50;72.60;;;;;;10379501;28;20215;-71
2021/10/13 13:19:34;;;;;;;2.07;1.13;;;18.50;72.70;;;;;;10357747;28;20226;-71
2021/10/13 13:24:57;;;;;;;3.43;1.00;;;18.50;72.80;;;;;;10362723;28;20281;-71
2021/10/13 13:30:19;;;;;;;2.30;1.00;;;18.50;72.80;;;;;;10368441;28;20205;-70
2021/10/13 13:35:42;;;;;;;3.50;1.27;;;18.50;72.80;;;;;;10357187;28;20248;-70
2021/10/13 13:41:06;;;;;;;2.00;1.03;;;18.50;72.80;;;;;;10354559;28;20230;-69
2021/10/13 13:46:28;;;;;;;1.30;0.70;;;18.50;72.80;;;;;;10351188;28;20213;-67
2021/10/13 13:51:50;;;;;;;2.00;0.90;;;18.50;72.60;;;;;;10383115;28;20681;-67
2021/10/13 13:57:13;;;;;;;2.40;1.00;;;18.50;72.40;;;;;;10358230;28;20949;-67
2021/10/13 14:02:35;;;;;;;2.17;0.80;;;18.50;72.40;;;;;;10359926;28;20202;-67
2021/10/13 14:07:58;;;;;;;1.90;0.80;;;18.60;72.50;;;;;;10336616;28;20189;-67
2021/10/13 14:13:21;;;;;;;2.00;1.20;;;18.60;72.40;;;;;;10357985;28;20222;-67
2021/10/13 14:18:43;;;;;;;1.63;0.90;;;18.60;72.40;;;;;;10327013;28;20219;-67
2021/10/13 14:24:06;;;;;;;2.70;1.10;;;18.60;72.20;;;;;;10355322;28;20237;-66
2021/10/13 14:29:29;;;;;;;2.47;0.73;;;18.70;72.10;;;;;;10361480;28;20206;-66
2021/10/13 14:34:54;;;;;;;1.20;0.80;;;18.60;72.10;;;;;;10370555;28;20226;-66
2021/10/13 14:40:19;;;;;;;1.70;1.00;;;18.70;72.20;;;;;;10368323;28;20222;-66
2021/10/13 14:45:42;;;;;;;1.23;0.77;;;18.70;72.20;;;;;;10368477;28;20349;-67
2021/10/13 14:51:07;;;;;;;1.43;0.80;;;18.70;72.20;;;;;;10374304;28;20194;-66
2021/10/13 14:56:29;;;;;;;2.00;0.90;;;18.70;72.10;;;;;;10356636;28;20214;-66
2021/10/13 15:01:53;;;;;;;1.40;0.87;;;18.70;72.00;;;;;;10330609;28;20590;-66
2021/10/13 15:07:15;;;;;;;2.27;1.00;;;18.70;72.10;;;;;;10364179;28;20233;-66
2021/10/13 15:12:37;;;;;;;4.23;0.70;;;18.70;72.10;;;;;;10365740;28;20190;-66
2021/10/13 15:18:00;;;;;;;1.27;0.60;;;18.70;72.00;;;;;;10368193;28;20690;-66
2021/10/13 15:23:23;;;;;;;1.23;0.70;;;18.70;72.00;;;;;;10342910;28;20567;-66
2021/10/13 15:28:45;;;;;;;1.97;0.93;;;18.70;72.00;;;;;;10372137;28;20194;-67
2021/10/13 15:34:08;;;;;;;0.73;0.70;;;18.70;71.90;;;;;;10371609;28;20226;-64
2021/10/13 15:39:30;;;;;;;1.23;0.70;;;18.70;71.90;;;;;;10370703;28;20593;-66
2021/10/13 15:44:52;;;;;;;3.33;1.23;;;18.70;71.90;;;;;;10341029;28;20215;-67
2021/10/13 15:50:16;;;;;;;1.43;0.70;;;18.70;71.90;;;;;;10395781;28;20194;-66
2021/10/13 15:55:38;;;;;;;1.00;0.77;;;18.70;71.90;;;;;;10367851;28;20594;-66
2021/10/13 16:01:02;;;;;;;1.77;0.80;;;18.70;72.00;;;;;;10373069;28;20226;-65
2021/10/13 16:06:25;;;;;;;1.10;0.80;;;18.70;72.00;;;;;;10338950;28;20677;-66
2021/10/13 16:11:47;;;;;;;1.80;0.67;;;18.70;72.00;;;;;;10336267;28;20199;-66
2021/10/13 16:17:09;;;;;;;1.17;0.80;;;18.70;72.00;;;;;;10343261;28;20593;-66
2021/10/13 16:22:33;;;;;;;1.87;0.77;;;18.70;72.10;;;;;;10359138;28;20230;-66
2021/10/13 16:27:55;;;;;;;1.37;1.07;;;18.70;72.10;;;;;;10396187;28;20228;-66
2021/10/13 16:33:17;;;;;;;2.70;1.10;;;18.70;72.10;;;;;;10382013;28;20213;-66
2021/10/13 16:38:40;;;;;;;2.30;0.97;;;18.70;72.20;;;;;;10371422;28;20213;-66
2021/10/13 16:44:02;;;;;;;1.90;1.00;;;18.70;72.20;;;;;;10365307;28;20214;-65
2021/10/13 16:49:25;;;;;;;2.80;1.20;;;18.70;72.10;;;;;;10377476;28;20563;-66
2021/10/13 16:54:48;;;;;;;1.90;1.13;;;18.70;72.20;;;;;;10336011;28;20693;-66
2021/10/13 17:00:11;;;;;;;1.97;1.20;;;18.70;72.20;;;;;;10344885;28;20223;-66
2021/10/13 17:05:34;;;;;;;3.23;1.27;;;18.70;72.10;;;;;;10355157;28;20308;-65
2021/10/13 17:10:57;;;;;;;1.77;1.07;;;18.70;72.00;;;;;;10360476;28;20187;-66
2021/10/13 17:16:20;;;;;;;2.07;1.40;;;18.70;72.10;;;;;;10333223;28;20230;-66
2021/10/13 17:21:42;;;;;;;1.97;1.20;;;18.70;72.20;;;;;;10338999;28;20214;-66
2021/10/13 17:27:06;;;;;;;3.43;1.20;;;18.80;72.20;;;;;;10355640;28;20222;-69
2021/10/13 17:32:28;;;;;;;2.90;1.60;;;18.70;72.10;;;;;;10364763;28;20195;-67
2021/10/13 17:37:50;;;;;;;2.90;1.67;;;18.70;72.10;;;;;;10366292;28;20217;-67
2021/10/13 17:43:13;;;;;;;3.13;1.60;;;18.70;72.20;;;;;;10355285;28;20225;-67
2021/10/13 17:48:36;;;;;;;3.67;1.50;;;18.70;72.20;;;;;;10377243;28;20677;-67
2021/10/13 17:53:58;;;;;;;3.20;1.40;;;18.70;72.20;;;;;;10362396;28;20330;-67
2021/10/13 17:59:21;;;;;;;4.97;1.73;;;18.70;72.30;;;;;;10349676;28;20211;-67
2021/10/13 18:04:43;;;;;;;2.97;1.50;;;18.70;72.30;;;;;;10424932;22;20235;-67
2021/10/13 18:10:07;;;;;;;2.43;1.20;;;18.70;72.20;;;;;;10478099;28;20197;-67
2021/10/13 18:15:30;;;;;;;3.23;1.60;;;18.80;72.40;;;;;;10461516;28;20222;-67
2021/10/13 18:20:52;;;;;;;2.33;1.30;;;18.80;72.40;;;;;;10480180;28;20231;-66
2021/10/13 18:26:14;;;;;;;1.87;1.30;;;18.80;72.30;;;;;;10469677;28;20223;-66
2021/10/13 18:31:38;;;;;;;3.17;1.57;;;18.80;72.30;;;;;;10476196;28;20193;-67
2021/10/13 18:37:01;;;;;;;2.23;1.30;;;18.70;72.30;;;;;;10454338;28;20231;-66
2021/10/13 18:42:23;;;;;;;3.40;1.50;;;18.70;72.40;;;;;;10471630;28;20212;-66
2021/10/13 18:47:47;;;;;;;2.60;1.60;;;18.80;72.40;;;;;;10485548;28;20221;-69
2021/10/13 18:53:09;;;;;;;1.97;1.20;;;18.70;72.50;;;;;;10450439;28;20235;-65
2021/10/13 18:58:31;;;;;;;2.10;1.20;;;18.70;72.40;;;;;;10457849;28;20197;-67
2021/10/13 19:03:54;;;;;;;3.63;1.43;;;18.70;72.30;;;;;;10486890;28;20212;-71
2021/10/13 19:09:17;;;;;;;2.23;1.30;;;18.70;72.30;;;;;;10465408;28;20211;-72
2021/10/13 19:14:39;;;;;;;1.83;1.37;;;18.70;72.40;;;;;;10488547;28;20212;-73
2021/10/13 19:20:03;;;;;;;2.07;1.50;;;18.60;72.50;;;;;;10478374;28;20703;-71
2021/10/13 19:25:25;;;;;;;3.20;1.67;;;18.60;72.60;;;;;;10486747;28;20216;-71
2021/10/13 19:30:48;;;;;;;3.23;1.40;;;18.60;72.60;;;;;;10482941;28;20606;-72
2021/10/13 19:36:12;;;;;;;2.23;1.50;;;18.60;72.70;;;;;;10478670;28;20772;-71
2021/10/13 19:41:34;;;;;;;3.67;1.40;;;18.60;72.70;;;;;;10481044;28;20892;-71
2021/10/13 19:46:57;;;;;;;3.07;1.77;;;18.60;72.70;;;;;;10481026;28;20216;-71
2021/10/13 19:52:20;;;;;;;3.63;1.60;;;18.50;72.70;;;;;;10481582;28;20208;-72
2021/10/13 19:57:43;;;;;;;2.50;1.30;;;18.60;72.70;;;;;;10479355;28;20221;-72
2021/10/13 20:03:05;;;;;;;2.40;1.30;;;18.60;72.70;;;;;;10480064;28;20217;-69
2021/10/13 20:08:28;;;;;;;1.93;1.20;;;18.60;72.80;;;;;;10483078;28;20205;-71
2021/10/13 20:13:50;;;;;;;1.73;1.20;;;18.60;73.40;;;;;;10481346;28;20207;-71
2021/10/13 20:19:12;;;;;;;1.63;1.17;;;18.60;72.80;;;;;;10481330;28;20200;-72
2021/10/13 20:24:36;;;;;;;2.67;1.50;;;18.60;72.80;;;;;;10480191;28;20228;-71
2021/10/13 20:29:58;;;;;;;1.83;1.30;;;18.60;72.80;;;;;;10480255;28;20191;-71
2021/10/13 20:35:20;;;;;;;1.90;1.27;;;18.60;72.80;;;;;;10493229;28;20718;-70
2021/10/13 20:40:46;;;;;;;2.63;1.63;;;18.60;72.80;;;;;;10500912;28;20219;-71
2021/10/13 20:46:08;;;;;;;2.97;1.73;;;18.60;72.80;;;;;;10498852;28;20220;-69
2021/10/13 20:51:30;;;;;;;2.30;1.40;;;18.60;72.90;;;;;;10487732;28;20188;-71
2021/10/13 20:56:53;;;;;;;1.90;1.07;;;18.60;72.90;;;;;;10481656;28;20220;-71
2021/10/13 21:02:15;;;;;;;1.63;1.23;;;18.50;72.90;;;;;;10496670;28;20587;-71
2021/10/13 21:07:38;;;;;;;2.70;1.27;;;18.50;73.00;;;;;;10499436;28;20216;-71
2021/10/13 21:13:02;;;;;;;1.60;1.37;;;18.50;73.00;;;;;;10497650;28;20188;-72
2021/10/13 21:18:24;;;;;;;2.33;1.20;;;18.50;73.10;;;;;;10456995;28;20227;-71
2021/10/13 21:23:46;;;;;;;1.37;1.10;;;18.50;73.20;;;;;;10480098;28;20208;-72
2021/10/13 21:29:12;;;;;;;2.27;1.43;;;18.50;73.20;;;;;;10474303;28;20686;-72
2021/10/13 21:34:34;;;;;;;1.70;0.90;;;18.40;73.30;;;;;;10464901;28;20273;-71
2021/10/13 21:39:56;;;;;;;0.93;0.83;;;18.40;73.30;;;;;;10461784;28;20225;-71
2021/10/13 21:45:20;;;;;;;1.83;1.20;;;18.40;73.30;;;;;;10458416;28;20596;-72
2021/10/13 21:50:43;;;;;;;2.07;1.40;;;18.40;73.40;;;;;;10499069;28;20211;-72
2021/10/13 21:56:06;;;;;;;1.60;1.00;;;18.30;73.40;;;;;;10481115;28;20718;-70
2021/10/13 22:01:30;;;;;;;1.93;1.23;;;18.30;73.40;;;;;;10464068;28;20596;-72
2021/10/13 22:06:52;;;;;;;1.83;1.10;;;18.30;73.50;;;;;;10462743;28;20246;-71
2021/10/13 22:12:14;;;;;;;0.93;0.90;;;18.30;73.50;;;;;;10457170;28;20190;-72
2021/10/13 22:17:38;;;;;;;3.03;1.20;;;18.20;74.00;;;;;;10460282;28;20220;-72
2021/10/13 22:23:00;;;;;;;1.33;1.00;;;18.30;73.50;;;;;;10476797;28;20223;-72
2021/10/13 22:28:22;;;;;;;2.33;1.00;;;18.30;73.50;;;;;;10469995;28;20248;-72
2021/10/13 22:33:46;;;;;;;1.10;1.00;;;18.30;73.40;;;;;;10457036;28;20684;-73
2021/10/13 22:39:08;;;;;;;2.60;1.13;;;18.30;73.40;;;;;;10455152;28;20189;-71
2021/10/13 22:44:31;;;;;;;1.10;0.87;;;18.30;73.40;;;;;;10466515;28;20705;-71
2021/10/13 22:49:54;;;;;;;1.00;0.77;;;18.30;73.40;;;;;;10461753;28;20189;-72
2021/10/13 22:55:17;;;;;;;2.97;1.00;;;18.30;73.50;;;;;;10455097;28;20216;-72
2021/10/13 23:00:40;;;;;;;1.40;1.00;;;18.20;73.40;;;;;;10451731;28;20219;-71
2021/10/13 23:06:04;;;;;;;1.20;0.80;;;18.20;73.50;;;;;;10489079;28;20603;-72
2021/10/13 23:11:26;;;;;;;1.70;0.93;;;18.30;73.60;;;;;;10496091;28;20196;-72
2021/10/13 23:16:48;;;;;;;2.00;1.00;;;18.30;73.50;;;;;;10497888;28;20212;-71
2021/10/13 23:22:12;;;;;;;2.77;0.87;;;18.30;73.50;;;;;;10497253;28;20220;-72
2021/10/13 23:27:34;;;;;;;1.87;1.00;;;18.30;73.60;;;;;;10478656;28;20216;-71
2021/10/13 23:32:56;;;;;;;0.73;0.60;;;18.20;73.50;;;;;;10454122;28;20197;-71
2021/10/13 23:38:20;;;;;;;1.00;0.90;;;18.30;73.60;;;;;;10454825;28;20340;-71
2021/10/13 23:43:42;;;;;;;1.10;0.73;;;18.30;73.70;;;;;;10453954;28;20268;-72
2021/10/13 23:49:04;;;;;;;2.37;0.90;;;18.20;73.70;;;;;;10477900;28;20196;-72
2021/10/13 23:54:27;;;;;;;1.70;0.60;;;18.20;73.70;;;;;;10498122;28;20213;-73
2021/10/13 23:59:49;;;;;;;0.93;0.80;;;18.30;73.70;;;;;;10462305;28;20283;-71
